Time;durP1;ratioP1;P1;durP2;ratioP2;P2;SDS_P1;SDS_P2;PMS_P1;PMS_P2;Temp;Humidity;BMP_temperature;BMP_pressure;BME280_temperature;BME280_humidity;BME280_pressure;Samples;Min_cycle;Max_cycle;Signal;HPM_P1;HPM_P2
2021/01/04 00:02:32;;;;;;;17.90;9.95;;;1.30;99.90;;;;;;4959387;28;20038;-78
2021/01/04 00:05:11;;;;;;;18.50;10.10;;;1.20;99.90;;;;;;4970966;28;20719;-79
2021/01/04 00:08:03;;;;;;;19.00;9.55;;;1.20;99.90;;;;;;4967947;28;20046;-78
2021/01/04 00:11:06;;;;;;;16.77;9.50;;;1.20;99.90;;;;;;4941993;29;20120;-79
2021/01/04 00:13:43;;;;;;;19.88;9.88;;;1.20;99.90;;;;;;4973842;28;20026;-77
2021/01/04 00:16:27;;;;;;;19.17;10.68;;;1.20;99.90;;;;;;4974396;28;20153;-79
2021/01/04 00:19:01;;;;;;;16.38;9.48;;;1.20;99.90;;;;;;4942019;28;20507;-78
2021/01/04 00:21:47;;;;;;;17.20;10.20;;;1.20;99.90;;;;;;4969793;28;20038;-79
2021/01/04 00:24:35;;;;;;;18.65;10.55;;;1.20;99.90;;;;;;4971649;28;20082;-78
2021/01/04 00:27:14;;;;;;;17.88;9.98;;;1.20;99.90;;;;;;4970015;28;20781;-78
2021/01/04 00:29:39;;;;;;;18.00;9.80;;;1.20;99.90;;;;;;4982905;28;20037;-79
2021/01/04 00:32:20;;;;;;;17.70;9.82;;;1.30;99.90;;;;;;4964094;28;20030;-78
2021/01/04 00:34:52;;;;;;;19.38;9.90;;;1.20;99.90;;;;;;4954369;28;20435;-79
2021/01/04 00:37:32;;;;;;;17.38;9.80;;;1.30;99.90;;;;;;4980209;28;20046;-80
2021/01/04 00:40:23;;;;;;;16.38;9.20;;;1.30;99.90;;;;;;4977127;28;20080;-80
2021/01/04 00:42:50;;;;;;;14.25;8.85;;;1.30;99.90;;;;;;4996363;28;20045;-79
2021/01/04 00:45:21;;;;;;;17.33;9.65;;;1.30;99.90;;;;;;4979658;28;20038;-79
2021/01/04 00:48:23;;;;;;;17.08;9.15;;;1.30;99.90;;;;;;4969978;28;20074;-79
2021/01/04 00:51:20;;;;;;;17.00;9.43;;;1.20;99.90;;;;;;4950485;28;20057;-79
2021/01/04 00:53:49;;;;;;;17.23;9.02;;;1.20;99.90;;;;;;4961753;28;20038;-79
2021/01/04 00:56:50;;;;;;;15.45;8.98;;;1.20;99.90;;;;;;4954943;28;20034;-78
2021/01/04 00:59:32;;;;;;;18.10;9.50;;;1.20;99.90;;;;;;4972919;28;20030;-79
2021/01/04 01:02:40;;;;;;;18.33;9.25;;;1.20;99.90;;;;;;4965766;28;20031;-79
2021/01/04 01:05:08;;;;;;;16.63;9.25;;;1.20;99.90;;;;;;4982224;28;20053;-79
2021/01/04 01:08:15;;;;;;;16.83;8.90;;;1.20;99.90;;;;;;4967814;28;20042;-80
2021/01/04 01:10:45;;;;;;;16.15;8.85;;;1.20;99.90;;;;;;4960477;28;20046;-79
2021/01/04 01:13:29;;;;;;;15.35;8.40;;;1.30;99.90;;;;;;4982781;28;20084;-80
2021/01/04 01:16:01;;;;;;;15.57;9.18;;;1.30;99.90;;;;;;4968288;28;20045;-79
2021/01/04 01:18:44;;;;;;;18.30;8.88;;;1.30;99.90;;;;;;4963230;28;20410;-80
2021/01/04 01:21:11;;;;;;;12.23;8.20;;;1.30;99.90;;;;;;4978949;28;20185;-80
2021/01/04 01:23:39;;;;;;;17.20;9.50;;;1.20;99.90;;;;;;4978856;28;20065;-79
2021/01/04 01:26:14;;;;;;;16.92;9.10;;;1.30;99.90;;;;;;4962978;28;20042;-80
2021/01/04 01:28:45;;;;;;;17.07;9.30;;;1.20;99.90;;;;;;4946868;28;20058;-80
2021/01/04 01:31:17;;;;;;;17.63;9.50;;;1.30;99.90;;;;;;4946204;28;20281;-80
2021/01/04 01:34:01;;;;;;;15.02;8.88;;;1.30;99.90;;;;;;4943047;28;20138;-80
2021/01/04 01:36:51;;;;;;;16.42;9.25;;;1.30;99.90;;;;;;4943046;28;20039;-83
2021/01/04 01:39:32;;;;;;;16.80;9.55;;;1.30;99.90;;;;;;4926917;28;20219;-80
2021/01/04 01:42:24;;;;;;;18.73;9.68;;;1.30;99.90;;;;;;4942823;28;20038;-79
2021/01/04 01:45:09;;;;;;;15.75;8.93;;;1.20;99.90;;;;;;4975294;28;20049;-79
2021/01/04 01:47:50;;;;;;;18.60;8.13;;;1.20;99.90;;;;;;4997671;28;20081;-79
2021/01/04 01:50:34;;;;;;;15.48;8.77;;;1.20;99.90;;;;;;4982836;28;20052;-78
2021/01/04 01:53:12;;;;;;;14.10;8.80;;;1.30;99.90;;;;;;4981373;28;20038;-79
2021/01/04 01:56:05;;;;;;;16.52;8.40;;;1.30;99.90;;;;;;4951841;28;20878;-79
2021/01/04 01:59:03;;;;;;;16.30;9.07;;;1.30;99.90;;;;;;4967248;28;20039;-79
2021/01/04 02:01:36;;;;;;;14.65;8.35;;;1.30;99.90;;;;;;4976777;28;20141;-79
2021/01/04 02:04:18;;;;;;;15.00;8.23;;;1.30;99.90;;;;;;4958098;28;20039;-79
2021/01/04 02:06:51;;;;;;;14.90;8.95;;;1.30;99.90;;;;;;4969120;28;20034;-79
2021/01/04 02:09:26;;;;;;;17.73;9.20;;;1.20;99.90;;;;;;4978113;28;20034;-81
2021/01/04 02:12:21;;;;;;;13.82;8.57;;;1.20;99.90;;;;;;4977444;28;20545;-80
2021/01/04 02:14:50;;;;;;;14.05;7.97;;;1.20;99.90;;;;;;4961153;28;20034;-82
2021/01/04 02:17:37;;;;;;;13.30;8.43;;;1.20;99.90;;;;;;4962621;28;20038;-80
2021/01/04 02:20:28;;;;;;;15.57;8.60;;;1.20;99.90;;;;;;4982123;28;20035;-80
2021/01/04 02:23:19;;;;;;;14.98;8.30;;;1.30;99.90;;;;;;4952468;28;20034;-80
2021/01/04 02:25:48;;;;;;;15.00;8.13;;;1.20;99.90;;;;;;4973586;28;20039;-80
2021/01/04 02:28:22;;;;;;;13.30;8.10;;;1.20;99.90;;;;;;4945980;28;20034;-81
2021/01/04 02:30:48;;;;;;;13.15;8.10;;;1.20;99.90;;;;;;4975684;28;20060;-81
2021/01/04 02:33:15;;;;;;;14.32;8.65;;;1.30;99.90;;;;;;4955296;28;20494;-80
2021/01/04 02:35:42;;;;;;;14.07;8.32;;;1.30;99.90;;;;;;4959975;28;20027;-80
2021/01/04 02:38:09;;;;;;;14.68;8.27;;;1.30;99.90;;;;;;4976772;28;20034;-81
2021/01/04 02:40:35;;;;;;;15.20;8.48;;;1.30;99.90;;;;;;4961921;28;20038;-81
2021/01/04 02:43:01;;;;;;;14.15;8.52;;;1.30;99.90;;;;;;4958067;28;20041;-81
2021/01/04 02:45:30;;;;;;;14.30;8.05;;;1.30;99.90;;;;;;4968880;28;20046;-81
2021/01/04 02:48:12;;;;;;;14.88;8.32;;;1.20;99.90;;;;;;4977021;28;20034;-81
2021/01/04 02:51:08;;;;;;;13.88;7.93;;;1.30;99.90;;;;;;4975540;28;20049;-81
2021/01/04 02:54:02;;;;;;;15.60;7.68;;;1.20;99.90;;;;;;4982110;28;20050;-81
2021/01/04 02:56:33;;;;;;;14.00;8.18;;;1.20;99.90;;;;;;4980917;28;20383;-80
2021/01/04 02:59:23;;;;;;;14.52;8.60;;;1.30;99.90;;;;;;4970826;28;20037;-80
2021/01/04 03:01:53;;;;;;;16.75;8.43;;;1.30;99.90;;;;;;4943921;28;20469;-80
2021/01/04 03:04:22;;;;;;;14.77;8.45;;;1.20;99.90;;;;;;4944385;28;20031;-80
2021/01/04 03:07:12;;;;;;;13.55;8.32;;;1.20;99.90;;;;;;4960850;28;20042;-80
2021/01/04 03:09:43;;;;;;;14.25;8.15;;;1.20;99.90;;;;;;4971874;28;20173;-80
2021/01/04 03:12:14;;;;;;;15.38;8.02;;;1.20;99.90;;;;;;4963016;28;20078;-80
2021/01/04 03:14:58;;;;;;;13.18;7.55;;;1.30;99.90;;;;;;4967485;28;20034;-80
2021/01/04 03:17:33;;;;;;;14.27;8.18;;;1.30;99.90;;;;;;4975754;28;20149;-80
2021/01/04 03:20:01;;;;;;;13.68;8.02;;;1.30;99.90;;;;;;4959823;28;20053;-80
2021/01/04 03:22:27;;;;;;;13.43;7.60;;;1.30;99.90;;;;;;4954409;28;20502;-80
2021/01/04 03:24:53;;;;;;;15.30;8.00;;;1.30;99.90;;;;;;4943850;28;20037;-79
2021/01/04 03:27:40;;;;;;;11.93;7.15;;;1.30;99.90;;;;;;4975407;28;20399;-79
2021/01/04 03:30:06;;;;;;;14.38;8.10;;;1.30;99.90;;;;;;4974709;28;20078;-80
2021/01/04 03:32:32;;;;;;;15.52;7.45;;;1.20;99.90;;;;;;4978686;28;20095;-78
2021/01/04 03:34:57;;;;;;;11.15;6.93;;;1.20;99.90;;;;;;4961297;28;20625;-79
2021/01/04 03:37:23;;;;;;;11.45;6.85;;;1.20;99.90;;;;;;4967868;28;20989;-79
2021/01/04 03:39:49;;;;;;;13.40;7.75;;;1.30;99.90;;;;;;4977844;28;20030;-79
2021/01/04 03:42:14;;;;;;;12.25;7.30;;;1.30;99.90;;;;;;4962527;28;20031;-79
2021/01/04 03:44:40;;;;;;;13.30;7.60;;;1.30;99.90;;;;;;4982985;28;20031;-79
2021/01/04 03:47:06;;;;;;;13.00;7.63;;;1.30;99.90;;;;;;4964003;28;20268;-78
2021/01/04 03:49:32;;;;;;;11.77;7.45;;;1.40;99.90;;;;;;4956672;28;20710;-78
2021/01/04 03:51:59;;;;;;;13.57;7.72;;;1.30;99.90;;;;;;4943633;28;20042;-78
2021/01/04 03:54:26;;;;;;;12.05;7.40;;;1.30;99.90;;;;;;4969376;28;20073;-78
2021/01/04 03:56:52;;;;;;;12.98;7.55;;;1.30;99.90;;;;;;4945750;28;20043;-78
2021/01/04 03:59:18;;;;;;;13.57;8.18;;;1.30;99.90;;;;;;4969595;28;20062;-78
2021/01/04 04:01:51;;;;;;;11.75;7.10;;;1.40;99.90;;;;;;4981109;28;20133;-78
2021/01/04 04:04:18;;;;;;;12.68;7.80;;;1.30;99.90;;;;;;4953524;28;20050;-78
2021/01/04 04:06:44;;;;;;;11.82;6.80;;;1.30;99.90;;;;;;4965005;28;20046;-78
2021/01/04 04:09:11;;;;;;;13.18;7.50;;;1.30;99.90;;;;;;4983049;28;20967;-78
2021/01/04 04:11:37;;;;;;;14.68;7.45;;;1.20;99.90;;;;;;4945896;28;20078;-78
2021/01/04 04:14:03;;;;;;;13.55;7.80;;;1.20;99.90;;;;;;4969933;28;20125;-79
2021/01/04 04:16:29;;;;;;;12.20;7.18;;;1.20;99.90;;;;;;4969594;28;20608;-80
2021/01/04 04:18:55;;;;;;;12.52;7.35;;;1.20;99.90;;;;;;4969063;28;20034;-81
2021/01/04 04:21:20;;;;;;;15.07;7.72;;;1.20;99.90;;;;;;4970602;28;20070;-82
2021/01/04 04:23:46;;;;;;;13.65;7.30;;;1.20;99.90;;;;;;4964780;28;20043;-79
2021/01/04 04:26:20;;;;;;;13.32;7.57;;;1.30;99.90;;;;;;4976787;28;20418;-78
2021/01/04 04:28:46;;;;;;;12.65;7.78;;;1.30;99.90;;;;;;4978161;28;20061;-78
2021/01/04 04:31:12;;;;;;;11.30;7.10;;;1.30;99.90;;;;;;4977680;28;20519;-78
2021/01/04 04:33:39;;;;;;;13.05;7.45;;;1.30;99.90;;;;;;4947524;28;20035;-78
2021/01/04 04:36:05;;;;;;;11.35;6.85;;;1.30;99.90;;;;;;4939416;28;20902;-78
2021/01/04 04:38:31;;;;;;;10.50;6.40;;;1.30;99.90;;;;;;4958004;28;20030;-78
2021/01/04 04:40:57;;;;;;;11.90;6.82;;;1.30;99.90;;;;;;4971673;28;20042;-79
2021/01/04 04:43:28;;;;;;;12.63;7.38;;;1.30;99.90;;;;;;4969025;28;20704;-79
2021/01/04 04:45:54;;;;;;;10.57;6.50;;;1.30;99.90;;;;;;4974152;28;20054;-79
2021/01/04 04:48:47;;;;;;;12.70;7.95;;;1.30;99.90;;;;;;4979526;28;20039;-78
2021/01/04 04:51:43;;;;;;;12.27;6.72;;;1.30;99.90;;;;;;4970692;28;20030;-78
2021/01/04 04:54:22;;;;;;;;;;;1.30;99.90;;;;;;4982899;28;20049;-80
2021/01/04 04:57:02;;;;;;;13.52;7.00;;;1.30;99.90;;;;;;4975402;28;19920;-78
2021/01/04 04:59:44;;;;;;;10.73;6.85;;;1.20;99.90;;;;;;4991001;28;20415;-77
2021/01/04 05:06:46;;;;;;;10.30;6.45;;;1.30;99.90;;;;;;4971046;28;20037;-78
2021/01/04 05:09:14;;;;;;;11.68;6.95;;;1.20;99.90;;;;;;4962110;28;20357;-78
2021/01/04 05:11:43;;;;;;;12.77;6.95;;;1.30;99.90;;;;;;4987067;28;20039;-77
2021/01/04 05:14:24;;;;;;;11.05;7.05;;;1.30;99.90;;;;;;4965129;28;20091;-78
2021/01/04 05:17:19;;;;;;;11.85;7.05;;;1.40;99.90;;;;;;4985841;28;20042;-78
2021/01/04 05:20:05;;;;;;;11.83;7.13;;;1.30;99.90;;;;;;4981634;28;20034;-78
2021/01/04 05:23:06;;;;;;;11.18;6.57;;;1.20;99.90;;;;;;4977277;28;20279;-78
2021/01/04 05:25:32;;;;;;;13.13;7.72;;;1.30;99.90;;;;;;4980581;28;20138;-78
2021/01/04 05:28:03;;;;;;;11.25;6.95;;;1.30;99.90;;;;;;4987756;28;20030;-78
2021/01/04 05:30:48;;;;;;;11.63;6.85;;;1.30;99.90;;;;;;4971017;28;20031;-78
2021/01/04 05:33:42;;;;;;;11.85;7.00;;;1.20;99.90;;;;;;4963407;28;20078;-78
2021/01/04 05:36:22;;;;;;;14.15;7.50;;;1.30;99.90;;;;;;4980992;28;20038;-77
2021/01/04 05:39:05;;;;;;;11.65;6.70;;;1.30;99.90;;;;;;4981933;28;20052;-78
2021/01/04 05:42:06;;;;;;;11.88;6.93;;;1.20;99.90;;;;;;4968322;28;20030;-78
2021/01/04 05:45:12;;;;;;;13.18;7.18;;;1.20;99.90;;;;;;4962268;28;20085;-78
2021/01/04 05:47:57;;;;;;;10.93;6.32;;;1.20;99.90;;;;;;4933806;28;20058;-78
2021/01/04 05:50:45;;;;;;;10.68;6.57;;;1.20;99.90;;;;;;4953854;28;20042;-78
2021/01/04 05:53:11;;;;;;;11.27;6.57;;;1.30;99.90;;;;;;4977071;28;20546;-79
2021/01/04 05:55:36;;;;;;;11.23;7.05;;;1.30;99.90;;;;;;4974879;28;20034;-78
2021/01/04 05:58:25;;;;;;;9.25;5.95;;;1.40;99.90;;;;;;4959158;28;20826;-79
2021/01/04 06:00:51;;;;;;;11.50;6.70;;;1.30;99.90;;;;;;4941770;28;20039;-78
2021/01/04 06:03:20;;;;;;;11.73;7.55;;;1.30;99.90;;;;;;4969634;28;20045;-77
2021/01/04 06:05:47;;;;;;;10.23;6.25;;;1.30;99.90;;;;;;4964178;28;20566;-79
2021/01/04 06:08:25;;;;;;;12.10;6.78;;;1.30;99.90;;;;;;4971209;28;20042;-79
2021/01/04 06:11:03;;;;;;;17.48;8.07;;;1.30;99.90;;;;;;4977032;28;20035;-72
2021/01/04 06:13:44;;;;;;;10.10;6.38;;;1.40;99.90;;;;;;4978548;28;20030;-81
2021/01/04 06:16:14;;;;;;;14.68;8.40;;;1.30;99.90;;;;;;4961066;28;20537;-81
2021/01/04 06:18:45;;;;;;;11.55;6.78;;;1.30;99.90;;;;;;4974578;28;20037;-81
2021/01/04 06:21:29;;;;;;;10.50;5.95;;;1.30;99.90;;;;;;4966856;28;20030;-81
2021/01/04 06:24:00;;;;;;;9.88;6.00;;;1.30;99.90;;;;;;4970932;28;20034;-82
2021/01/04 06:26:26;;;;;;;11.85;5.88;;;1.20;99.90;;;;;;4962305;28;20034;-85
2021/01/04 06:29:05;;;;;;;10.48;6.55;;;1.10;99.90;;;;;;4981488;28;20041;-79
2021/01/04 06:31:39;;;;;;;9.55;6.03;;;1.10;99.90;;;;;;4961171;28;20058;-79
2021/01/04 06:34:17;;;;;;;12.63;6.25;;;1.10;99.90;;;;;;4972083;28;20556;-78
2021/01/04 06:36:47;;;;;;;12.75;5.90;;;1.10;99.90;;;;;;4941100;29;20094;-78
2021/01/04 06:39:18;;;;;;;10.98;6.40;;;1.10;99.90;;;;;;4967107;28;20123;-78
2021/01/04 06:41:44;;;;;;;11.85;6.70;;;1.10;99.90;;;;;;4976603;28;20054;-79
2021/01/04 06:44:18;;;;;;;9.93;5.93;;;1.00;99.90;;;;;;4967905;28;20066;-78
2021/01/04 06:47:02;;;;;;;9.37;5.93;;;1.00;99.90;;;;;;4976634;28;20097;-77
2021/01/04 06:49:37;;;;;;;10.55;6.20;;;1.00;99.90;;;;;;4977505;28;20250;-78
2021/01/04 06:52:12;;;;;;;9.23;5.85;;;1.00;99.90;;;;;;4973953;28;20041;-78
2021/01/04 06:55:07;;;;;;;11.20;6.90;;;0.90;99.90;;;;;;4966281;28;20484;-79
2021/01/04 06:57:57;;;;;;;7.93;4.53;;;1.00;99.90;;;;;;4956099;28;20050;-77
2021/01/04 07:00:37;;;;;;;10.23;6.47;;;0.90;99.90;;;;;;4964174;28;20109;-77
2021/01/04 07:03:05;;;;;;;11.80;6.60;;;1.00;99.90;;;;;;4967458;28;20142;-77
2021/01/04 07:05:43;;;;;;;8.90;5.60;;;1.00;99.90;;;;;;4963392;28;20062;-77
2021/01/04 07:08:27;;;;;;;10.25;6.38;;;1.00;99.90;;;;;;4979779;28;20034;-77
2021/01/04 07:11:08;;;;;;;9.45;5.88;;;1.00;99.90;;;;;;4978105;28;20061;-76
2021/01/04 07:13:45;;;;;;;9.60;6.50;;;1.10;99.90;;;;;;4963377;28;20034;-77
2021/01/04 07:16:17;;;;;;;13.32;7.20;;;1.00;99.90;;;;;;4965138;28;20778;-77
2021/01/04 07:18:52;;;;;;;12.30;6.90;;;1.00;99.90;;;;;;4978914;28;20465;-77
2021/01/04 07:21:33;;;;;;;11.05;6.53;;;1.10;99.90;;;;;;4940834;28;20039;-78
2021/01/04 07:24:07;;;;;;;10.80;6.47;;;1.00;99.90;;;;;;4946371;28;20120;-72
2021/01/04 07:26:59;;;;;;;10.82;7.20;;;1.00;99.90;;;;;;4950813;28;20447;-75
2021/01/04 07:29:59;;;;;;;10.27;6.38;;;1.00;99.90;;;;;;4962770;28;20081;-77
2021/01/04 07:32:28;;;;;;;10.65;6.57;;;1.00;99.90;;;;;;4962734;28;20051;-81
2021/01/04 07:35:08;;;;;;;12.48;7.05;;;1.00;99.90;;;;;;4946086;28;20042;-81
2021/01/04 07:37:40;;;;;;;11.18;6.55;;;1.00;99.90;;;;;;4968744;28;20177;-79
2021/01/04 07:40:33;;;;;;;12.75;6.95;;;1.10;99.90;;;;;;4971133;28;20567;-79
2021/01/04 07:43:42;;;;;;;12.18;7.03;;;1.00;99.90;;;;;;4973653;28;20682;-80
2021/01/04 07:46:37;;;;;;;15.57;8.75;;;1.10;99.90;;;;;;4943879;28;20037;-79
2021/01/04 07:49:24;;;;;;;40.42;18.08;;;1.10;99.90;;;;;;4967777;28;20027;-81
2021/01/04 07:51:49;;;;;;;24.13;12.73;;;1.10;99.90;;;;;;4962018;28;20050;-82
2021/01/04 07:54:44;;;;;;;15.93;8.43;;;1.10;99.90;;;;;;4953268;28;20788;-82
2021/01/04 07:57:18;;;;;;;15.05;7.45;;;1.10;99.90;;;;;;4955858;28;20047;-82
2021/01/04 08:00:07;;;;;;;13.68;8.13;;;1.10;99.90;;;;;;4975875;28;20341;-81
2021/01/04 08:03:02;;;;;;;11.18;6.97;;;1.10;99.90;;;;;;4956924;28;20046;-81
2021/01/04 08:05:49;;;;;;;10.77;6.70;;;1.20;99.90;;;;;;4959226;28;20067;-81
2021/01/04 08:08:52;;;;;;;13.00;7.55;;;1.20;99.90;;;;;;4979015;28;20825;-81
2021/01/04 08:11:56;;;;;;;15.85;7.53;;;1.20;99.90;;;;;;4952642;28;20770;-81
2021/01/04 08:14:46;;;;;;;13.68;7.53;;;1.20;99.90;;;;;;4966364;28;20089;-81
2021/01/04 08:17:21;;;;;;;12.95;7.80;;;1.20;99.90;;;;;;4950887;28;20145;-81
2021/01/04 08:19:52;;;;;;;12.35;7.78;;;1.20;99.90;;;;;;4949846;28;20494;-84
2021/01/04 08:22:47;;;;;;;11.30;7.32;;;1.30;99.90;;;;;;4971442;28;20564;-80
2021/01/04 08:25:31;;;;;;;13.40;7.43;;;1.30;99.90;;;;;;4961701;28;20101;-79
2021/01/04 08:28:09;;;;;;;13.57;7.93;;;1.30;99.90;;;;;;4951129;28;20042;-79
2021/01/04 08:30:43;;;;;;;12.20;7.50;;;1.30;99.90;;;;;;4980362;28;20040;-80
2021/01/04 08:33:19;;;;;;;13.80;7.78;;;1.30;99.90;;;;;;4969320;28;20043;-81
2021/01/04 08:35:47;;;;;;;11.68;7.45;;;1.30;99.90;;;;;;4942849;28;20810;-79
2021/01/04 08:38:27;;;;;;;14.73;7.80;;;1.40;99.90;;;;;;4965047;28;20034;-79
2021/01/04 08:41:05;;;;;;;16.35;8.35;;;1.30;99.90;;;;;;4951660;28;20646;-80
2021/01/04 08:43:35;;;;;;;13.10;7.40;;;1.30;99.90;;;;;;4970503;28;20030;-79
2021/01/04 08:46:19;;;;;;;14.50;8.30;;;1.30;99.90;;;;;;4978144;28;20625;-79
2021/01/04 08:48:45;;;;;;;13.18;7.20;;;1.30;99.90;;;;;;4953404;28;21047;-81
2021/01/04 08:51:25;;;;;;;25.17;12.05;;;1.40;99.90;;;;;;4949425;28;20022;-79
2021/01/04 08:53:57;;;;;;;17.35;8.75;;;1.40;99.90;;;;;;4955718;28;20081;-79
2021/01/04 08:56:31;;;;;;;14.18;8.13;;;1.50;99.90;;;;;;4954555;28;20038;-79
2021/01/04 08:59:10;;;;;;;14.55;8.20;;;1.50;99.90;;;;;;4980027;28;20045;-79
2021/01/04 09:01:41;;;;;;;13.65;8.30;;;1.50;99.90;;;;;;4963683;28;20054;-79
2021/01/04 09:04:10;;;;;;;15.60;7.70;;;1.50;99.90;;;;;;4946802;28;20384;-79
2021/01/04 09:06:40;;;;;;;16.27;8.80;;;1.40;99.90;;;;;;4977490;28;20076;-79
2021/01/04 09:09:20;;;;;;;15.25;8.60;;;1.50;99.90;;;;;;4974246;28;20113;-79
2021/01/04 09:12:14;;;;;;;12.38;6.97;;;1.50;99.90;;;;;;4989150;28;20034;-78
2021/01/04 09:14:58;;;;;;;14.40;7.80;;;1.60;99.90;;;;;;4964265;28;20062;-81
2021/01/04 09:17:44;;;;;;;15.05;8.52;;;1.60;99.90;;;;;;4949106;28;20046;-80
2021/01/04 09:20:15;;;;;;;19.45;9.93;;;1.70;99.90;;;;;;4945930;28;20042;-77
2021/01/04 09:22:41;;;;;;;17.70;9.00;;;1.70;99.90;;;;;;4949195;28;20121;-81
2021/01/04 09:25:42;;;;;;;16.98;8.55;;;1.60;99.90;;;;;;4968626;28;20073;-81
2021/01/04 09:28:09;;;;;;;17.52;8.13;;;1.60;99.90;;;;;;4929522;28;20058;-81
2021/01/04 09:30:34;;;;;;;16.85;8.85;;;1.60;99.90;;;;;;4981245;28;20038;-81
2021/01/04 09:33:08;;;;;;;14.30;7.82;;;1.50;99.90;;;;;;4951236;28;20030;-81
2021/01/04 09:35:34;;;;;;;18.33;9.18;;;1.50;99.90;;;;;;4973910;28;20065;-81
2021/01/04 09:38:02;;;;;;;16.80;8.10;;;1.60;99.90;;;;;;4972445;28;20164;-81
2021/01/04 09:40:29;;;;;;;17.42;8.93;;;1.50;99.90;;;;;;4970068;28;20027;-81
2021/01/04 09:43:10;;;;;;;16.10;8.45;;;1.60;99.90;;;;;;4979832;28;20036;-81
2021/01/04 09:45:37;;;;;;;16.88;8.02;;;1.60;99.90;;;;;;4962859;28;20066;-79
2021/01/04 09:48:09;;;;;;;19.15;8.80;;;1.70;99.90;;;;;;4970889;28;20633;-79
2021/01/04 09:51:14;;;;;;;20.10;9.27;;;1.50;99.90;;;;;;4959158;28;20034;-79
2021/01/04 09:53:41;;;;;;;16.20;8.98;;;1.60;99.90;;;;;;4962813;28;20779;-79
2021/01/04 09:56:14;;;;;;;27.52;13.30;;;1.60;99.90;;;;;;4948375;28;20039;-79
2021/01/04 09:58:40;;;;;;;21.73;11.40;;;1.70;99.90;;;;;;4984745;28;20045;-78
2021/01/04 10:01:13;;;;;;;18.92;8.95;;;1.70;99.90;;;;;;4979135;28;20038;-82
2021/01/04 10:03:50;;;;;;;20.10;9.70;;;1.70;99.90;;;;;;4956383;28;20767;-81
2021/01/04 10:06:16;;;;;;;17.35;9.13;;;1.70;99.90;;;;;;4963785;28;20085;-80
2021/01/04 10:08:44;;;;;;;22.83;9.40;;;1.70;99.90;;;;;;4960982;28;20030;-81
2021/01/04 10:11:18;;;;;;;22.58;9.85;;;1.60;99.90;;;;;;4969342;28;20121;-80
2021/01/04 10:13:44;;;;;;;21.13;9.80;;;1.70;99.90;;;;;;4977494;28;20093;-80
2021/01/04 10:16:23;;;;;;;20.02;9.77;;;1.60;99.90;;;;;;4965869;28;20070;-80
2021/01/04 10:19:08;;;;;;;22.92;10.18;;;1.60;99.90;;;;;;4941738;29;20043;-80
2021/01/04 10:22:02;;;;;;;19.23;9.82;;;1.60;99.90;;;;;;4964338;28;20081;-81
2021/01/04 10:24:39;;;;;;;19.10;9.10;;;1.50;99.90;;;;;;4966842;28;20134;-78
2021/01/04 10:27:05;;;;;;;21.25;9.23;;;1.60;99.90;;;;;;4967332;28;20096;-79
2021/01/04 10:29:33;;;;;;;21.95;10.13;;;1.60;99.90;;;;;;4969024;28;20062;-79
2021/01/04 10:32:12;;;;;;;22.38;11.45;;;1.70;99.90;;;;;;4960017;28;20047;-79
2021/01/04 10:34:45;;;;;;;21.67;11.05;;;1.60;99.90;;;;;;4977038;28;20055;-80
2021/01/04 10:37:29;;;;;;;28.33;13.20;;;1.70;99.90;;;;;;4979479;28;20049;-81
2021/01/04 10:40:00;;;;;;;23.90;10.52;;;1.70;99.90;;;;;;4977235;28;20061;-81
2021/01/04 10:42:28;;;;;;;21.80;10.63;;;1.70;99.90;;;;;;4958940;28;20042;-82
2021/01/04 10:45:11;;;;;;;22.92;11.77;;;1.70;99.90;;;;;;4949701;28;20041;-82
2021/01/04 10:47:44;;;;;;;22.95;10.82;;;1.70;99.90;;;;;;4964925;28;20049;-82
2021/01/04 10:50:40;;;;;;;28.95;12.00;;;1.80;99.90;;;;;;4980765;28;20081;-81
2021/01/04 10:53:26;;;;;;;26.38;11.65;;;1.70;99.90;;;;;;4962811;28;20046;-82
2021/01/04 10:56:16;;;;;;;28.08;11.48;;;1.70;99.90;;;;;;4954731;28;20038;-82
2021/01/04 10:58:52;;;;;;;24.98;12.18;;;1.70;99.90;;;;;;4987751;28;20554;-81
2021/01/04 11:01:23;;;;;;;27.35;11.57;;;1.70;99.90;;;;;;4947531;28;20834;-80
2021/01/04 11:03:53;;;;;;;35.53;13.60;;;1.70;99.90;;;;;;4959420;28;20038;-79
2021/01/04 11:06:29;;;;;;;29.58;14.13;;;1.80;99.90;;;;;;4987786;28;20037;-78
2021/01/04 11:08:55;;;;;;;28.00;13.15;;;1.70;99.90;;;;;;4966592;28;20081;-78
2021/01/04 11:11:34;;;;;;;28.38;11.95;;;1.70;99.90;;;;;;4959190;28;20034;-80
2021/01/04 11:14:07;;;;;;;28.85;12.52;;;1.70;99.90;;;;;;4969909;28;20026;-82
2021/01/04 11:16:41;;;;;;;27.75;12.02;;;1.80;99.90;;;;;;4962485;28;20812;-81
2021/01/04 11:19:07;;;;;;;25.73;11.85;;;1.80;99.90;;;;;;4953709;28;20035;-80
2021/01/04 11:21:40;;;;;;;25.52;12.00;;;1.80;99.90;;;;;;4968956;28;20049;-80
2021/01/04 11:24:07;;;;;;;29.15;12.38;;;1.80;99.90;;;;;;4977993;28;20128;-80
2021/01/04 11:26:32;;;;;;;27.75;11.45;;;1.90;99.90;;;;;;4964406;28;20172;-81
2021/01/04 11:28:58;;;;;;;25.35;12.05;;;1.80;99.90;;;;;;4970906;28;20122;-80
2021/01/04 11:31:24;;;;;;;27.27;11.95;;;1.90;99.90;;;;;;4961184;28;20031;-80
2021/01/04 11:33:50;;;;;;;27.58;11.70;;;1.80;99.90;;;;;;4949438;28;20026;-81
2021/01/04 11:36:15;;;;;;;31.35;12.57;;;1.80;99.90;;;;;;4960735;28;20066;-80
2021/01/04 11:38:41;;;;;;;23.45;11.70;;;1.90;99.90;;;;;;4958821;28;20150;-81
2021/01/04 11:41:07;;;;;;;24.55;11.52;;;1.80;99.90;;;;;;4966629;28;20042;-76
2021/01/04 11:43:32;;;;;;;27.63;12.23;;;1.80;99.90;;;;;;4956938;28;20038;-80
2021/01/04 11:45:58;;;;;;;25.88;13.10;;;1.80;99.90;;;;;;4942707;28;20653;-80
2021/01/04 11:48:24;;;;;;;27.35;11.77;;;1.80;99.90;;;;;;4956534;28;20099;-81
2021/01/04 11:50:50;;;;;;;28.05;12.50;;;1.80;99.90;;;;;;4940550;28;20558;-80
2021/01/04 11:53:17;;;;;;;25.05;11.57;;;1.80;99.90;;;;;;4962782;28;20376;-81
2021/01/04 11:55:43;;;;;;;29.80;11.85;;;1.70;99.90;;;;;;4975312;28;20061;-84
2021/01/04 11:58:08;;;;;;;26.77;12.13;;;1.70;99.90;;;;;;4964610;28;20147;-81
2021/01/04 12:00:35;;;;;;;28.10;12.18;;;1.60;99.90;;;;;;4946702;28;20063;-81
2021/01/04 12:03:01;;;;;;;26.95;11.93;;;1.60;99.90;;;;;;4976198;28;20034;-79
2021/01/04 12:05:27;;;;;;;28.33;12.38;;;1.70;99.90;;;;;;4950713;28;20108;-80
2021/01/04 12:07:53;;;;;;;28.70;12.63;;;1.60;99.90;;;;;;4983515;28;20118;-80
2021/01/04 12:10:19;;;;;;;31.90;13.02;;;1.70;99.90;;;;;;4972499;28;20067;-81
2021/01/04 12:12:45;;;;;;;31.50;13.40;;;1.70;99.90;;;;;;4970652;28;20030;-81
2021/01/04 12:15:12;;;;;;;31.50;13.07;;;1.70;99.90;;;;;;4989051;28;20866;-82
2021/01/04 12:17:37;;;;;;;32.97;13.10;;;1.70;99.90;;;;;;4952221;28;20111;-81
2021/01/04 12:20:06;;;;;;;27.25;12.43;;;1.80;99.90;;;;;;4956446;28;20150;-80
2021/01/04 12:22:31;;;;;;;30.30;12.90;;;1.80;99.90;;;;;;4952994;28;20130;-81
2021/01/04 12:24:58;;;;;;;29.80;12.90;;;1.80;99.90;;;;;;4967850;28;20058;-69
2021/01/04 12:27:23;;;;;;;29.85;13.52;;;1.80;99.90;;;;;;4966780;28;20326;-80
2021/01/04 12:29:49;;;;;;;29.23;13.02;;;1.70;99.90;;;;;;4973456;28;20498;-79
2021/01/04 12:32:17;;;;;;;30.15;13.27;;;1.80;99.90;;;;;;4967165;28;20046;-79
2021/01/04 12:34:43;;;;;;;31.05;14.60;;;1.70;99.90;;;;;;4978506;28;20049;-80
2021/01/04 12:37:10;;;;;;;32.95;13.05;;;1.70;99.90;;;;;;4968946;28;20118;-79
2021/01/04 12:39:35;;;;;;;28.83;14.23;;;1.70;99.90;;;;;;4948958;28;20123;-79
2021/01/04 12:42:02;;;;;;;31.60;13.70;;;1.70;99.90;;;;;;4968416;28;20055;-80
2021/01/04 12:44:28;;;;;;;33.67;13.98;;;1.70;99.90;;;;;;4958761;28;20143;-80
2021/01/04 12:46:53;;;;;;;27.05;13.23;;;1.60;99.90;;;;;;4947969;28;20815;-80
2021/01/04 12:49:21;;;;;;;39.53;14.77;;;1.70;99.90;;;;;;4968122;28;20439;-80
2021/01/04 12:51:49;;;;;;;25.73;13.07;;;1.70;99.90;;;;;;4945799;28;20046;-80
2021/01/04 12:54:17;;;;;;;35.75;13.77;;;1.80;99.90;;;;;;4950112;28;20062;-81
2021/01/04 12:56:52;;;;;;;30.98;14.25;;;1.70;99.90;;;;;;4948411;28;20042;-79
2021/01/04 12:59:22;;;;;;;65.18;26.70;;;1.70;99.90;;;;;;4974918;28;20030;-80
2021/01/04 13:01:51;;;;;;;28.98;13.23;;;1.60;99.90;;;;;;4972570;28;20070;-80
2021/01/04 13:04:21;;;;;;;31.65;12.50;;;1.60;99.90;;;;;;4941984;28;20038;-80
2021/01/04 13:06:47;;;;;;;29.27;13.20;;;1.60;99.90;;;;;;4946498;28;20038;-80
2021/01/04 13:09:14;;;;;;;35.10;14.18;;;1.70;99.90;;;;;;4969582;28;20027;-81
2021/01/04 13:11:44;;;;;;;35.72;13.65;;;1.70;99.90;;;;;;4945215;28;20074;-81
2021/01/04 13:14:10;;;;;;;32.10;13.02;;;1.60;99.90;;;;;;4949095;28;20041;-81
2021/01/04 13:16:37;;;;;;;36.08;12.88;;;1.60;99.90;;;;;;4964491;28;20030;-81
2021/01/04 13:19:05;;;;;;;27.42;13.32;;;1.60;99.90;;;;;;4986555;28;20038;-81
2021/01/04 13:21:30;;;;;;;39.00;14.35;;;1.60;99.90;;;;;;4967461;28;20026;-81
2021/01/04 13:23:56;;;;;;;31.67;13.88;;;1.60;99.90;;;;;;4950864;28;20479;-81
2021/01/04 13:26:22;;;;;;;30.63;13.05;;;1.60;99.90;;;;;;4945085;28;20085;-81
2021/01/04 13:28:48;;;;;;;34.72;13.70;;;1.60;99.90;;;;;;4948557;28;20038;-81
2021/01/04 13:31:22;;;;;;;30.98;14.30;;;1.70;99.90;;;;;;4958076;28;20027;-81
2021/01/04 13:33:48;;;;;;;37.67;13.82;;;1.70;99.90;;;;;;4961668;28;20042;-80